Time;durP1;ratioP1;P1;durP2;ratioP2;P2;SDS_P1;SDS_P2;PMS_P1;PMS_P2;Temp;Humidity;BMP_temperature;BMP_pressure;BME280_temperature;BME280_humidity;BME280_pressure;Samples;Min_cycle;Max_cycle;Signal;HPM_P1;HPM_P2
2024/03/06 00:00:49;;;;;;;40.90;29.35;;;;;;;7.20;100.00;101704.78;10493774;28;20045;-68
2024/03/06 00:05:49;;;;;;;38.63;28.33;;;;;;;7.23;100.00;101715.25;10492582;28;20045;-66
2024/03/06 00:10:49;;;;;;;37.95;28.00;;;;;;;7.25;100.00;101720.50;10492776;28;20392;-68
2024/03/06 00:15:50;;;;;;;31.88;26.42;;;;;;;7.26;100.00;101735.66;10492957;28;20107;-68
2024/03/06 00:20:50;;;;;;;41.88;26.55;;;;;;;7.27;100.00;101741.88;10492808;28;20041;-67
2024/03/06 00:25:51;;;;;;;43.20;27.83;;;;;;;7.26;100.00;101757.22;10492244;28;20112;-67
2024/03/06 00:30:51;;;;;;;37.72;30.40;;;;;;;7.26;100.00;101745.59;10492134;28;20031;-66
2024/03/06 00:35:51;;;;;;;36.05;27.05;;;;;;;7.30;100.00;101744.28;10490324;28;20233;-67
2024/03/06 00:40:52;;;;;;;36.53;28.20;;;;;;;7.29;100.00;101746.13;10492010;28;20032;-68
2024/03/06 00:45:52;;;;;;;41.67;31.95;;;;;;;7.33;100.00;101754.75;10489341;28;20387;-69
2024/03/06 00:50:52;;;;;;;44.28;30.50;;;;;;;7.36;100.00;101754.44;10492151;28;20021;-69
2024/03/06 00:55:53;;;;;;;34.67;27.45;;;;;;;7.35;100.00;101758.97;10490335;28;20036;-67
2024/03/06 01:00:54;;;;;;;34.80;28.13;;;;;;;7.36;100.00;101765.22;10498665;28;20478;-69
2024/03/06 01:05:54;;;;;;;39.30;27.17;;;;;;;7.40;100.00;101764.75;10499512;28;20044;-68
2024/03/06 01:10:55;;;;;;;36.05;27.50;;;;;;;7.48;100.00;101763.13;10500499;28;20028;-67
2024/03/06 01:15:55;;;;;;;31.33;26.88;;;;;;;7.52;100.00;101768.03;10499943;28;20024;-68
2024/03/06 01:20:56;;;;;;;39.10;29.85;;;;;;;7.55;100.00;101769.59;10500263;28;20369;-68
2024/03/06 01:25:56;;;;;;;39.42;27.67;;;;;;;7.55;100.00;101770.41;10500065;28;20133;-68
2024/03/06 01:30:58;;;;;;;34.13;28.30;;;;;;;7.54;100.00;101776.00;10499102;28;20017;-68
2024/03/06 01:35:59;;;;;;;40.33;31.25;;;;;;;7.49;100.00;101775.59;10499033;28;20134;-67
2024/03/06 01:41:00;;;;;;;40.80;28.02;;;;;;;7.48;100.00;101773.91;10499071;28;20621;-68
2024/03/06 01:46:00;;;;;;;42.30;30.75;;;;;;;7.43;100.00;101774.34;10498396;28;20020;-67
2024/03/06 01:51:02;;;;;;;48.80;31.63;;;;;;;7.41;100.00;101785.31;10498881;28;20028;-68
2024/03/06 01:56:03;;;;;;;36.42;29.05;;;;;;;7.42;100.00;101783.47;10497398;28;20387;-69
2024/03/06 02:01:04;;;;;;;34.05;28.40;;;;;;;7.39;100.00;101787.31;10496488;28;20049;-67
2024/03/06 02:06:05;;;;;;;36.40;27.90;;;;;;;7.37;100.00;101796.53;10494585;28;20522;-68
2024/03/06 02:11:06;;;;;;;39.35;30.00;;;;;;;7.32;100.00;101801.56;10474003;28;20052;-69
2024/03/06 02:16:07;;;;;;;43.97;31.88;;;;;;;7.19;100.00;101791.16;10494923;28;20024;-67
2024/03/06 02:21:07;;;;;;;41.90;34.03;;;;;;;7.08;100.00;101797.59;10476829;28;20376;-67
2024/03/06 02:26:08;;;;;;;44.85;28.85;;;;;;;7.07;100.00;101805.84;10494566;28;20032;-68
2024/03/06 02:31:08;;;;;;;35.50;29.33;;;;;;;7.01;100.00;101807.31;10476633;28;20024;-66
2024/03/06 02:36:09;;;;;;;43.30;31.27;;;;;;;6.96;100.00;101801.53;10494093;28;20043;-68
2024/03/06 02:41:10;;;;;;;42.67;29.90;;;;;;;6.89;100.00;101803.13;10493705;28;20035;-67
2024/03/06 02:46:10;;;;;;;42.17;29.75;;;;;;;6.85;100.00;101796.34;10493783;28;20032;-67
2024/03/06 02:51:10;;;;;;;50.90;35.00;;;;;;;6.89;100.00;101800.44;10493844;28;20067;-67
2024/03/06 02:56:18;;;;;;;42.95;33.15;;;;;;;6.86;100.00;101790.84;10492394;28;20047;-69
2024/03/06 03:01:18;;;;;;;42.25;34.40;;;;;;;6.85;100.00;101799.03;10438845;28;1128226;-67
2024/03/06 03:06:19;;;;;;;65.43;40.72;;;;;;;6.90;100.00;101807.53;10494659;28;20064;-67
2024/03/06 03:11:19;;;;;;;72.43;39.10;;;;;;;6.92;100.00;101822.53;10495809;28;20035;-67
2024/03/06 03:16:20;;;;;;;49.22;33.15;;;;;;;6.92;100.00;101819.84;10495741;28;20036;-68
2024/03/06 03:21:21;;;;;;;39.83;31.40;;;;;;;6.92;100.00;101821.66;10492668;28;20033;-67
2024/03/06 03:26:21;;;;;;;44.08;34.97;;;;;;;6.95;100.00;101816.81;10476838;28;20028;-67
2024/03/06 03:31:22;;;;;;;40.38;29.73;;;;;;;6.99;100.00;101820.09;10494647;28;20464;-66
2024/03/06 03:36:22;;;;;;;38.75;32.15;;;;;;;7.01;100.00;101817.22;10493664;28;20027;-68
2024/03/06 03:41:22;;;;;;;41.80;31.80;;;;;;;7.00;100.00;101819.06;10493846;28;20021;-68
2024/03/06 03:46:23;;;;;;;36.92;30.65;;;;;;;6.97;100.00;101819.38;10493694;28;20032;-67
2024/03/06 03:51:23;;;;;;;43.10;33.10;;;;;;;6.88;100.00;101820.28;10475393;28;20584;-69
2024/03/06 03:56:24;;;;;;;43.40;33.35;;;;;;;6.82;100.00;101823.56;10493252;28;20056;-69
2024/03/06 04:01:24;;;;;;;48.13;32.92;;;;;;;6.75;100.00;101821.47;10493890;28;20396;-67
2024/03/06 04:06:25;;;;;;;45.38;32.78;;;;;;;6.65;100.00;101815.31;10492690;28;20127;-68
2024/03/06 04:11:25;;;;;;;44.67;33.33;;;;;;;6.44;100.00;101823.59;10493668;28;20028;-67
2024/03/06 04:16:26;;;;;;;50.50;34.22;;;;;;;6.26;100.00;101826.22;10492934;28;20119;-67
2024/03/06 04:21:26;;;;;;;44.30;34.75;;;;;;;6.08;100.00;101836.03;10492308;28;20104;-68
2024/03/06 04:26:27;;;;;;;44.30;32.92;;;;;;;5.90;100.00;101840.44;10474339;28;20078;-68
2024/03/06 04:31:27;;;;;;;42.53;34.78;;;;;;;5.73;100.00;101842.00;10491171;28;20021;-67
2024/03/06 04:36:28;;;;;;;43.78;35.15;;;;;;;5.62;100.00;101837.66;10491935;28;20040;-67
2024/03/06 04:41:28;;;;;;;50.45;34.45;;;;;;;5.48;100.00;101846.13;10493032;28;20055;-67
2024/03/06 04:46:29;;;;;;;39.75;35.28;;;;;;;5.34;100.00;101845.56;10492498;28;20060;-68
2024/03/06 04:51:29;;;;;;;41.10;31.05;;;;;;;5.26;100.00;101853.44;10492945;28;20164;-69
2024/03/06 04:56:29;;;;;;;43.40;34.00;;;;;;;5.18;100.00;101866.72;10491886;28;20071;-69
2024/03/06 05:01:30;;;;;;;47.63;36.65;;;;;;;5.11;100.00;101865.59;10491628;28;20378;-68
2024/03/06 05:06:31;;;;;;;50.85;38.25;;;;;;;4.99;100.00;101880.13;10491479;28;20066;-68
2024/03/06 05:11:32;;;;;;;44.20;34.95;;;;;;;5.00;100.00;101895.22;10490772;28;20464;-67
2024/03/06 05:16:32;;;;;;;41.80;36.15;;;;;;;4.97;100.00;101895.50;10491414;28;20108;-68
2024/03/06 05:21:33;;;;;;;44.80;34.95;;;;;;;4.88;100.00;101899.84;10491373;28;20040;-67
2024/03/06 05:26:34;;;;;;;46.03;37.80;;;;;;;4.81;100.00;101894.16;10473291;28;20040;-67
2024/03/06 05:31:35;;;;;;;48.97;38.97;;;;;;;4.81;100.00;101901.38;10491192;28;20085;-67
2024/03/06 05:36:35;;;;;;;46.10;37.65;;;;;;;4.79;100.00;101904.19;10490559;28;20094;-65
2024/03/06 05:41:36;;;;;;;49.78;38.92;;;;;;;4.78;100.00;101912.38;10490879;28;20051;-68
2024/03/06 05:46:36;;;;;;;46.67;34.03;;;;;;;4.75;100.00;101912.63;10496046;28;20040;-69
2024/03/06 05:51:37;;;;;;;49.08;38.58;;;;;;;4.77;100.00;101916.91;10479448;28;20499;-69
2024/03/06 05:56:38;;;;;;;46.80;36.00;;;;;;;4.79;100.00;101924.81;10496555;28;20114;-68
2024/03/06 06:01:39;;;;;;;50.05;36.72;;;;;;;4.73;100.00;101930.72;10497062;28;20040;-66
2024/03/06 06:06:39;;;;;;;52.00;37.85;;;;;;;4.64;100.00;101935.06;10441108;28;20072;-67
2024/03/06 06:11:40;;;;;;;52.03;38.58;;;;;;;4.59;100.00;101938.13;10496098;28;20361;-66
2024/03/06 06:16:42;;;;;;;55.42;39.30;;;;;;;4.64;100.00;101943.09;10496561;28;20032;-68
2024/03/06 06:21:43;;;;;;;52.00;41.17;;;;;;;4.59;100.00;101954.22;10498106;28;20039;-66
2024/03/06 06:26:43;;;;;;;48.08;38.53;;;;;;;4.57;100.00;101969.63;10496026;28;20040;-67
2024/03/06 06:31:44;;;;;;;52.70;39.35;;;;;;;4.57;100.00;101976.81;10496343;28;20043;-66
2024/03/06 06:36:45;;;;;;;54.10;40.70;;;;;;;4.62;100.00;101972.72;10496199;28;20040;-68
2024/03/06 06:41:46;;;;;;;51.03;38.15;;;;;;;4.69;100.00;101991.84;10511279;28;20485;-66
2024/03/06 06:46:46;;;;;;;49.15;38.58;;;;;;;4.68;100.00;102003.56;10495828;28;20024;-66
2024/03/06 06:51:49;;;;;;;45.72;37.70;;;;;;;4.68;100.00;102014.28;10495652;28;20025;-66
2024/03/06 06:56:49;;;;;;;46.60;39.78;;;;;;;4.92;100.00;102015.84;10494017;28;20063;-66
2024/03/06 07:01:50;;;;;;;50.75;39.78;;;;;;;4.95;100.00;102023.63;10495958;28;20057;-67
2024/03/06 07:06:50;;;;;;;46.78;39.28;;;;;;;4.96;100.00;102033.38;10494563;28;20036;-66
2024/03/06 07:11:50;;;;;;;47.67;40.53;;;;;;;4.99;100.00;102033.13;10494538;28;20064;-66
2024/03/06 07:16:51;;;;;;;51.83;41.72;;;;;;;4.99;100.00;102033.97;10494778;28;20040;-66
2024/03/06 07:21:51;;;;;;;53.38;41.13;;;;;;;5.04;100.00;102045.16;10494299;28;20033;-67
2024/03/06 07:26:52;;;;;;;46.03;36.90;;;;;;;5.20;100.00;102052.75;10494031;28;20060;-69
2024/03/06 07:31:53;;;;;;;57.47;39.58;;;;;;;5.27;100.00;102058.41;10509264;28;20106;-67
2024/03/06 07:36:54;;;;;;;65.57;40.78;;;;;;;5.43;100.00;102066.81;10493206;28;20074;-67
2024/03/06 07:41:54;;;;;;;52.92;39.13;;;;;;;5.54;100.00;102071.25;10509088;28;20173;-67
2024/03/06 07:46:55;;;;;;;48.58;39.60;;;;;;;5.61;100.00;102075.06;10493414;28;20032;-66
2024/03/06 07:51:55;;;;;;;53.97;40.17;;;;;;;5.72;100.00;102085.72;10494211;28;20028;-67
2024/03/06 07:56:56;;;;;;;52.35;41.40;;;;;;;5.87;100.00;102088.03;10493717;28;20043;-67
2024/03/06 08:01:56;;;;;;;43.47;38.67;;;;;;;5.92;100.00;102101.91;10496049;28;20492;-67
2024/03/06 08:06:57;;;;;;;43.55;36.83;;;;;;;5.89;100.00;102103.03;10510224;28;20033;-66
2024/03/06 08:11:57;;;;;;;47.17;39.30;;;;;;;6.07;100.00;102111.34;10510733;28;20056;-69
2024/03/06 08:16:57;;;;;;;44.15;35.63;;;;;;;6.24;100.00;102118.72;10494472;28;20037;-68
2024/03/06 08:21:58;;;;;;;60.92;40.63;;;;;;;6.51;100.00;102117.19;10494063;28;20028;-68
2024/03/06 08:26:59;;;;;;;42.05;36.13;;;;;;;6.78;100.00;102121.00;10491199;28;20476;-67
2024/03/06 08:32:00;;;;;;;48.28;38.75;;;;;;;7.49;100.00;102123.28;10492317;28;20098;-67
2024/03/06 08:37:01;;;;;;;57.05;41.05;;;;;;;8.14;100.00;102122.25;10491883;28;20506;-68
2024/03/06 08:42:03;;;;;;;63.97;47.80;;;;;;;9.21;100.00;102125.94;10492178;28;20020;-68
2024/03/06 08:47:04;;;;;;;57.05;43.58;;;;;;;9.79;100.00;102141.47;10491727;28;20137;-69
2024/03/06 08:52:04;;;;;;;52.03;41.15;;;;;;;9.00;100.00;102135.25;10491547;28;20119;-69
2024/03/06 08:57:05;;;;;;;46.35;41.38;;;;;;;9.71;100.00;102153.09;10491690;28;20067;-67
2024/03/06 09:02:16;;;;;;;38.88;34.67;;;;;;;10.01;100.00;102151.72;10473250;28;20053;-68
2024/03/06 09:07:16;;;;;;;33.75;28.33;;;;;;;9.94;100.00;102160.66;10489705;28;20396;-68
2024/03/06 09:12:17;;;;;;;31.38;25.65;;;;;;;11.47;100.00;102151.22;10491151;28;20028;-69
2024/03/06 09:17:18;;;;;;;36.65;23.83;;;;;;;12.38;100.00;102150.72;10491151;28;20111;-68
2024/03/06 09:22:18;;;;;;;27.60;22.38;;;;;;;12.96;100.00;102156.59;10496841;28;20123;-68
2024/03/06 09:27:19;;;;;;;25.13;21.33;;;;;;;13.39;100.00;102156.91;10499193;28;20021;-68
2024/03/06 09:32:19;;;;;;;25.65;20.60;;;;;;;13.08;100.00;102167.84;10499039;28;20526;-68
2024/03/06 09:37:20;;;;;;;26.38;22.15;;;;;;;13.61;100.00;102161.44;10498232;28;20070;-68
2024/03/06 09:42:20;;;;;;;26.45;18.48;;;;;;;14.56;100.00;102168.75;10513813;28;20029;-68
2024/03/06 09:47:25;;;;;;;27.10;18.95;;;;;;;14.87;100.00;102181.25;10513982;28;20029;-68
2024/03/06 09:52:26;;;;;;;18.15;14.38;;;;;;;14.98;100.00;102180.72;10496846;28;20152;-68
2024/03/06 09:57:26;;;;;;;17.60;13.02;;;;;;;15.00;100.00;102180.53;10479470;28;20032;-69
2024/03/06 10:02:46;;;;;;;17.55;13.70;;;;;;;15.22;100.00;102189.53;10496235;28;20025;-67
2024/03/06 10:07:46;;;;;;;16.05;14.48;;;;;;;15.78;100.00;102187.69;10495852;28;20468;-67
2024/03/06 10:12:49;;;;;;;24.27;15.45;;;;;;;15.89;100.00;102183.56;10497436;28;20029;-69
2024/03/06 10:17:50;;;;;;;22.13;12.43;;;;;;;16.12;100.00;102187.88;10497184;28;20104;-68
2024/03/06 10:22:51;;;;;;;15.63;13.48;;;;;;;16.09;100.00;102191.00;10495573;28;20476;-69
2024/03/06 10:28:08;;;;;;;13.30;11.98;;;;;;;15.91;100.00;102200.56;10496880;28;20024;-68
2024/03/06 10:33:09;;;;;;;11.07;9.90;;;;;;;16.38;100.00;102198.91;10494917;28;20523;-67
2024/03/06 10:38:10;;;;;;;13.70;9.90;;;;;;;16.58;100.00;102198.13;10495749;28;20067;-69
2024/03/06 10:43:11;;;;;;;10.70;9.65;;;;;;;16.26;100.00;102206.00;10494762;28;20086;-69
2024/03/06 10:48:13;;;;;;;12.63;9.23;;;;;;;16.32;100.00;102216.13;10496401;28;20361;-69
2024/03/06 10:53:15;;;;;;;17.23;9.23;;;;;;;16.55;100.00;102210.31;10495738;28;20032;-68
2024/03/06 10:58:15;;;;;;;12.07;8.30;;;;;;;16.93;100.00;102221.63;10495445;28;20101;-68
2024/03/06 11:03:16;;;;;;;8.25;7.22;;;;;;;17.42;100.00;102220.41;10495378;28;20429;-68
2024/03/06 11:08:16;;;;;;;11.70;8.15;;;;;;;17.54;100.00;102231.56;10495157;28;20111;-69
2024/03/06 11:13:20;;;;;;;6.93;5.93;;;;;;;17.38;100.00;102230.06;10477659;28;20028;-67
2024/03/06 11:18:40;;;;;;;7.93;7.05;;;;;;;18.01;100.00;102232.38;10495144;28;20024;-67
2024/03/06 11:24:13;;;;;;;6.72;5.60;;;;;;;16.81;100.00;102238.84;10494892;28;20064;-69
2024/03/06 11:29:18;;;;;;;7.35;6.60;;;;;;;17.28;100.00;102243.34;10494596;28;20029;-70
2024/03/06 11:34:19;;;;;;;8.07;4.10;;;;;;;17.53;100.00;102242.75;10493032;28;20024;-70
2024/03/06 11:39:19;;;;;;;13.88;5.50;;;;;;;16.65;100.00;102249.06;10476025;28;20020;-66
2024/03/06 11:44:21;;;;;;;10.77;6.28;;;;;;;15.56;100.00;102246.94;10493846;28;20039;-70
2024/03/06 11:49:25;;;;;;;7.13;6.40;;;;;;;15.07;100.00;102244.19;10492590;28;20025;-69
2024/03/06 11:54:29;;;;;;;10.80;7.00;;;;;;;16.18;100.00;102239.00;10492525;28;20025;-69
2024/03/06 11:59:34;;;;;;;6.80;5.82;;;;;;;16.83;100.00;102239.50;10493083;28;20131;-69
2024/03/06 12:04:36;;;;;;;5.78;5.18;;;;;;;16.95;100.00;102249.63;10490913;28;20468;-70
2024/03/06 12:09:37;;;;;;;5.22;4.70;;;;;;;17.24;100.00;102236.63;10491567;28;20034;-69
2024/03/06 12:14:38;;;;;;;5.13;4.65;;;;;;;17.73;100.00;102251.78;10491274;28;20031;-69
2024/03/06 12:19:39;;;;;;;5.25;4.78;;;;;;;17.99;100.00;102250.06;10491260;28;20029;-69
2024/03/06 12:24:40;;;;;;;4.35;3.30;;;;;;;17.92;100.00;102249.25;10474422;28;20543;-69
2024/03/06 12:29:41;;;;;;;6.90;6.00;;;;;;;17.43;100.00;102254.13;10492400;28;20120;-70
2024/03/06 12:34:42;;;;;;;4.15;3.75;;;;;;;17.48;100.00;102242.50;10491505;28;20028;-69
2024/03/06 12:39:44;;;;;;;7.28;3.58;;;;;;;17.98;100.00;102259.38;10492643;28;20036;-70
2024/03/06 12:44:44;;;;;;;7.18;4.07;;;;;;;18.61;100.00;102256.84;10491015;28;20028;-70
2024/03/06 12:49:45;;;;;;;4.57;4.28;;;;;;;18.24;100.00;102259.28;10491869;28;20115;-69
2024/03/06 12:54:45;;;;;;;6.10;4.20;;;;;;;17.89;100.00;102262.31;10496801;28;20020;-70
2024/03/06 12:59:46;;;;;;;4.28;3.88;;;;;;;17.11;100.00;102264.81;10500603;28;20052;-69
2024/03/06 13:04:46;;;;;;;6.22;5.30;;;;;;;17.07;100.00;102262.69;10499997;28;20029;-70
2024/03/06 13:09:46;;;;;;;5.32;4.60;;;;;;;16.91;100.00;102269.38;10500641;28;20033;-69
2024/03/06 13:14:47;;;;;;;6.85;5.25;;;;;;;16.84;100.00;102261.16;10500026;28;20341;-69
2024/03/06 13:19:47;;;;;;;4.88;4.30;;;;;;;17.15;100.00;102260.59;10500404;28;20029;-69
2024/03/06 13:24:48;;;;;;;5.75;5.32;;;;;;;17.41;100.00;102259.78;10466145;28;20100;-69
2024/03/06 13:29:48;;;;;;;7.15;5.53;;;;;;;17.94;100.00;102267.19;10498981;28;20115;-68
2024/03/06 13:34:49;;;;;;;7.32;6.05;;;;;;;17.83;100.00;102263.16;10499693;28;20037;-70
2024/03/06 13:39:50;;;;;;;10.80;6.25;;;;;;;17.54;100.00;102258.94;10499936;28;20028;-69
2024/03/06 13:44:51;;;;;;;5.80;5.30;;;;;;;17.41;100.00;102269.91;10499361;28;20033;-70
2024/03/06 13:49:51;;;;;;;3.85;3.55;;;;;;;17.54;100.00;102266.31;10499405;28;20476;-70
2024/03/06 13:54:51;;;;;;;5.47;4.95;;;;;;;16.87;100.00;102268.94;10499210;28;20076;-70
2024/03/06 13:59:52;;;;;;;5.40;4.95;;;;;;;16.62;100.00;102270.50;10497711;28;20401;-68
2024/03/06 14:04:52;;;;;;;5.68;4.45;;;;;;;17.05;100.00;102279.31;10498310;28;20036;-69
2024/03/06 14:09:52;;;;;;;4.30;3.90;;;;;;;16.84;100.00;102277.56;10496833;28;20514;-69
2024/03/06 14:14:53;;;;;;;5.57;5.07;;;;;;;16.82;100.00;102285.16;10497648;28;20024;-69
2024/03/06 14:19:53;;;;;;;9.07;4.93;;;;;;;16.98;100.00;102278.47;10497617;28;20033;-69
2024/03/06 14:24:55;;;;;;;7.50;5.65;;;;;;;17.16;100.00;102280.59;10496109;28;20032;-70
2024/03/06 14:29:55;;;;;;;4.78;4.35;;;;;;;17.40;100.00;102285.50;10495787;28;20046;-70
2024/03/06 14:34:55;;;;;;;8.27;5.57;;;;;;;17.41;100.00;102287.16;10496363;28;20032;-70
2024/03/06 14:39:56;;;;;;;7.07;6.38;;;;;;;17.21;100.00;102291.78;10496828;28;20051;-69
2024/03/06 14:44:57;;;;;;;17.00;13.02;;;;;;;17.37;100.00;102293.28;10511994;28;20059;-70
2024/03/06 14:49:57;;;;;;;20.02;18.00;;;;;;;17.75;100.00;102284.44;10496329;28;20033;-69
2024/03/06 14:54:57;;;;;;;21.30;16.00;;;;;;;17.82;100.00;102283.41;10496311;28;20060;-69
2024/03/06 14:59:58;;;;;;;21.38;16.80;;;;;;;17.56;100.00;102297.94;10495758;28;20126;-70
2024/03/06 15:04:58;;;;;;;21.20;16.88;;;;;;;16.55;100.00;102297.00;10495328;28;20036;-69
2024/03/06 15:09:59;;;;;;;25.92;18.40;;;;;;;15.44;100.00;102308.56;10495494;28;20472;-70
2024/03/06 15:15:02;;;;;;;21.08;18.08;;;;;;;14.71;100.00;102309.63;10495264;28;20025;-70
2024/03/06 15:20:03;;;;;;;38.75;19.20;;;;;;;14.16;100.00;102311.78;10492454;28;20471;-69
2024/03/06 15:25:03;;;;;;;22.50;19.50;;;;;;;13.68;100.00;102314.81;10495441;28;20029;-70
2024/03/06 15:30:05;;;;;;;28.92;18.40;;;;;;;13.29;100.00;102303.22;10510137;28;20032;-70
2024/03/06 15:35:08;;;;;;;24.10;19.00;;;;;;;13.01;100.00;102312.72;10492787;28;20620;-70
2024/03/06 15:40:09;;;;;;;27.27;20.27;;;;;;;12.76;100.00;102314.75;10494337;28;20035;-69
2024/03/06 15:45:11;;;;;;;25.52;20.42;;;;;;;12.63;100.00;102319.88;10509402;28;20029;-69
2024/03/06 15:50:11;;;;;;;27.48;20.77;;;;;;;12.52;100.00;102315.69;10493574;28;20070;-69
2024/03/06 15:55:12;;;;;;;33.83;21.85;;;;;;;12.38;100.00;102329.13;10493776;28;20369;-70
2024/03/06 16:00:15;;;;;;;29.40;21.38;;;;;;;12.13;100.00;102328.38;10493918;28;20598;-70
2024/03/06 16:05:16;;;;;;;29.50;20.95;;;;;;;11.84;100.00;102333.34;10491476;28;20124;-69
2024/03/06 16:10:17;;;;;;;33.97;23.27;;;;;;;11.45;100.00;102340.41;10492018;28;20052;-70
2024/03/06 16:15:17;;;;;;;31.08;25.77;;;;;;;11.20;100.00;102339.50;10493645;28;20166;-71
2024/03/06 16:20:18;;;;;;;30.08;23.02;;;;;;;11.03;100.00;102349.47;10493049;28;20051;-70
2024/03/06 16:25:18;;;;;;;34.20;25.33;;;;;;;10.88;100.00;102355.53;10508580;28;20029;-71
2024/03/06 16:30:19;;;;;;;41.15;27.20;;;;;;;10.75;100.00;102355.13;10492448;28;20025;-70
2024/03/06 16:35:19;;;;;;;37.70;28.63;;;;;;;10.54;100.00;102349.28;10491976;28;20040;-70
2024/03/06 16:40:20;;;;;;;35.95;27.17;;;;;;;10.32;100.00;102351.53;10492230;28;20063;-71
2024/03/06 16:45:20;;;;;;;38.28;28.65;;;;;;;10.08;100.00;102356.75;10492076;28;20104;-70
2024/03/06 16:50:20;;;;;;;37.35;26.40;;;;;;;9.82;100.00;102357.56;10492231;28;20219;-70
2024/03/06 16:55:21;;;;;;;35.15;26.73;;;;;;;9.68;100.00;102371.69;10492125;28;20035;-69
2024/03/06 17:00:23;;;;;;;49.70;31.25;;;;;;;9.52;100.00;102369.66;10491810;28;20090;-70
2024/03/06 17:05:23;;;;;;;39.80;28.85;;;;;;;9.38;100.00;102376.47;10506493;28;20024;-71
2024/03/06 17:10:24;;;;;;;45.05;30.83;;;;;;;9.21;100.00;102372.72;10491906;28;20522;-70
2024/03/06 17:15:24;;;;;;;38.15;29.77;;;;;;;9.10;100.00;102381.06;10491689;28;20106;-71
2024/03/06 17:20:24;;;;;;;45.50;30.13;;;;;;;8.93;100.00;102376.44;10490072;28;20025;-69
2024/03/06 17:25:25;;;;;;;46.60;34.17;;;;;;;8.78;100.00;102389.63;10491471;28;20057;-71
2024/03/06 17:30:27;;;;;;;55.42;30.83;;;;;;;8.63;100.00;102394.66;10491582;28;20445;-71
2024/03/06 17:35:27;;;;;;;50.00;35.55;;;;;;;8.50;100.00;102386.88;10490113;28;20481;-70
2024/03/06 17:40:27;;;;;;;49.70;35.10;;;;;;;8.35;100.00;102401.81;10494991;28;20096;-72
2024/03/06 17:45:30;;;;;;;42.95;32.33;;;;;;;8.25;100.00;102409.94;10499542;28;20090;-71
2024/03/06 17:50:32;;;;;;;42.83;34.47;;;;;;;8.08;100.00;102421.47;10498905;28;20029;-70
2024/03/06 17:55:33;;;;;;;44.40;33.55;;;;;;;7.93;100.00;102426.44;10498470;28;20036;-71
2024/03/06 18:00:34;;;;;;;49.28;35.70;;;;;;;7.82;100.00;102427.44;10498855;28;20552;-70
2024/03/06 18:05:34;;;;;;;45.05;36.03;;;;;;;7.84;100.00;102432.69;10497765;28;20075;-70
2024/03/06 18:10:35;;;;;;;48.35;37.45;;;;;;;7.82;100.00;102440.94;10497880;28;20106;-70
2024/03/06 18:15:35;;;;;;;61.55;39.17;;;;;;;7.75;100.00;102447.03;10512950;28;20081;-71
2024/03/06 18:20:37;;;;;;;53.00;38.22;;;;;;;7.63;100.00;102444.47;10496258;28;20060;-70
2024/03/06 18:25:37;;;;;;;52.53;38.22;;;;;;;7.50;100.00;102451.09;10497865;28;20064;-70
2024/03/06 18:30:38;;;;;;;55.65;38.55;;;;;;;7.41;100.00;102447.41;10497934;28;20032;-70
2024/03/06 18:35:38;;;;;;;60.05;39.22;;;;;;;7.37;100.00;102457.63;10496376;28;20215;-72
2024/03/06 18:40:39;;;;;;;59.05;40.35;;;;;;;7.31;100.00;102458.19;10497385;28;20185;-71
2024/03/06 18:45:40;;;;;;;67.90;44.42;;;;;;;7.33;100.00;102455.31;10496658;28;20033;-71
2024/03/06 18:50:40;;;;;;;55.05;40.00;;;;;;;7.22;100.00;102457.16;10495116;28;20482;-70
2024/03/06 18:55:40;;;;;;;57.75;40.20;;;;;;;7.15;100.00;102458.69;10496632;28;20079;-71
2024/03/06 19:00:41;;;;;;;63.92;43.10;;;;;;;7.15;100.00;102460.53;10477928;28;20064;-71
2024/03/06 19:05:41;;;;;;;54.03;38.90;;;;;;;7.02;100.00;102470.69;10495410;28;20115;-70
2024/03/06 19:10:42;;;;;;;51.60;38.67;;;;;;;6.97;100.00;102480.03;10495938;28;20119;-69
2024/03/06 19:15:42;;;;;;;54.53;36.45;;;;;;;6.95;100.00;102479.28;10495883;28;20376;-71
2024/03/06 19:20:43;;;;;;;57.65;41.00;;;;;;;6.95;100.00;102482.00;10494660;28;20028;-69
2024/03/06 19:25:43;;;;;;;53.92;38.80;;;;;;;6.89;100.00;102485.25;10494201;28;20052;-70
2024/03/06 19:30:43;;;;;;;62.38;38.63;;;;;;;6.80;100.00;102482.50;10495564;28;20029;-69
2024/03/06 19:35:44;;;;;;;60.00;39.40;;;;;;;6.71;100.00;102490.38;10494396;28;20043;-71
2024/03/06 19:40:46;;;;;;;51.65;39.35;;;;;;;6.71;100.00;102485.00;10495119;28;20056;-69
2024/03/06 19:45:46;;;;;;;49.83;38.25;;;;;;;6.72;100.00;102484.00;10411277;28;20044;-71
2024/03/06 19:50:47;;;;;;;44.10;33.97;;;;;;;6.75;100.00;102483.75;10482022;28;20040;-71
2024/03/06 19:55:48;;;;;;;51.38;36.08;;;;;;;6.75;100.00;102491.81;10494927;28;20033;-70
2024/03/06 20:00:49;;;;;;;42.22;32.03;;;;;;;6.75;100.00;102494.50;10494843;28;20059;-71
2024/03/06 20:05:50;;;;;;;40.83;30.65;;;;;;;6.67;100.00;102497.03;10493181;28;20036;-70
2024/03/06 20:10:51;;;;;;;44.83;33.92;;;;;;;6.63;100.00;102494.72;10491969;28;20036;-72
2024/03/06 20:15:51;;;;;;;40.78;30.10;;;;;;;6.53;100.00;102500.88;10489373;28;20666;-71
2024/03/06 20:20:52;;;;;;;41.05;30.90;;;;;;;6.54;100.00;102499.09;10489437;28;20115;-69
2024/03/06 20:25:52;;;;;;;45.50;29.10;;;;;;;6.55;100.00;102497.25;10490435;28;20075;-72
2024/03/06 20:30:53;;;;;;;39.42;29.17;;;;;;;6.59;100.00;102499.53;10450400;28;20583;-70
2024/03/06 20:35:53;;;;;;;41.20;27.52;;;;;;;6.63;100.00;102509.03;10449223;28;20059;-71
2024/03/06 20:40:53;;;;;;;33.28;26.02;;;;;;;6.62;100.00;102504.63;10441393;28;20424;-70
2024/03/06 20:45:54;;;;;;;34.15;25.65;;;;;;;6.62;100.00;102506.47;10492072;28;20064;-70
2024/03/06 20:50:55;;;;;;;34.92;25.10;;;;;;;6.53;100.00;102508.97;10492402;28;20036;-71
2024/03/06 20:55:55;;;;;;;38.75;26.77;;;;;;;6.47;100.00;102506.78;10436798;28;20033;-70
2024/03/06 21:00:55;;;;;;;41.25;29.05;;;;;;;6.40;100.00;102511.00;10475098;28;21006;-73
2024/03/06 21:05:56;;;;;;;39.40;28.67;;;;;;;6.39;100.00;102513.84;10447989;28;20053;-71
2024/03/06 21:10:58;;;;;;;44.97;29.75;;;;;;;6.33;100.00;102519.75;10448933;28;20059;-70
2024/03/06 21:15:58;;;;;;;38.60;27.95;;;;;;;6.32;100.00;102523.38;10452680;28;20027;-69
2024/03/06 21:21:00;;;;;;;52.58;34.85;;;;;;;6.28;100.00;102522.81;10457842;28;20123;-70
2024/03/06 21:26:00;;;;;;;50.35;30.70;;;;;;;6.31;100.00;102522.53;10456943;28;20047;-70
2024/03/06 21:31:01;;;;;;;42.25;28.83;;;;;;;6.22;100.00;102528.69;10456301;28;20029;-70
2024/03/06 21:36:01;;;;;;;49.17;30.45;;;;;;;6.19;100.00;102531.66;10457093;28;20044;-71
2024/03/06 21:41:01;;;;;;;48.15;30.20;;;;;;;6.25;100.00;102534.69;10465442;28;20120;-69
2024/03/06 21:46:03;;;;;;;55.67;35.40;;;;;;;6.24;100.00;102524.91;10498510;28;20472;-71
2024/03/06 21:51:03;;;;;;;48.35;32.03;;;;;;;6.24;100.00;102530.28;10496705;28;20079;-69
2024/03/06 21:56:04;;;;;;;49.17;34.47;;;;;;;6.18;100.00;102538.88;10473199;28;20112;-70
2024/03/06 22:01:04;;;;;;;51.40;35.60;;;;;;;6.19;100.00;102539.72;10456871;28;20060;-70
2024/03/06 22:06:05;;;;;;;55.30;33.28;;;;;;;6.13;100.00;102537.56;10457963;28;20028;-70
2024/03/06 22:11:11;;;;;;;58.05;34.17;;;;;;;6.04;100.00;102545.41;10459894;28;20033;-70
2024/03/06 22:16:12;;;;;;;53.73;35.60;;;;;;;6.10;100.00;102540.50;10459013;28;20090;-69
2024/03/06 22:21:13;;;;;;;56.40;37.05;;;;;;;6.08;100.00;102550.53;10458414;28;20044;-69
2024/03/06 22:26:14;;;;;;;51.03;33.28;;;;;;;6.03;100.00;102551.78;10458499;28;20477;-70
2024/03/06 22:31:14;;;;;;;57.83;35.90;;;;;;;5.97;100.00;102546.06;10456829;28;20064;-69